createdAt,value
2024-04-25T00:33:59.688Z,18.06
2024-04-25T00:44:01.199Z,18.10
2024-04-25T00:54:02.602Z,18.10
2024-04-25T01:04:04.066Z,18.10
2024-04-25T01:14:06.557Z,18.07
2024-04-25T01:24:08.064Z,18.07
2024-04-25T01:34:09.449Z,18.05
2024-04-25T01:44:10.860Z,18.06
2024-04-25T01:54:12.292Z,18.04
2024-04-25T02:04:13.758Z,18.05
2024-04-25T02:14:15.163Z,18.03
2024-04-25T02:24:16.554Z,18.04
2024-04-25T02:34:18.068Z,18.03
2024-04-25T02:44:19.553Z,18.00
2024-04-25T02:54:21.053Z,17.99
2024-04-25T03:04:22.475Z,17.98
2024-04-25T03:14:23.860Z,17.94
2024-04-25T03:24:25.266Z,18.00
2024-04-25T03:34:26.653Z,17.97
2024-04-25T03:44:28.072Z,17.95
2024-04-25T03:54:31.692Z,17.95
2024-04-25T04:04:33.117Z,17.98
2024-04-25T04:14:34.621Z,17.97
2024-04-25T04:24:36.242Z,17.95
2024-04-25T04:34:38.668Z,17.97
2024-04-25T04:44:40.112Z,17.94
2024-04-25T04:54:41.513Z,17.94
2024-04-25T05:04:42.950Z,17.94
2024-04-25T05:14:44.342Z,17.92
2024-04-25T05:24:45.775Z,17.95
2024-04-25T05:34:47.225Z,17.92
2024-04-25T05:44:48.678Z,17.95
2024-04-25T05:54:50.051Z,17.94
2024-04-25T06:04:51.455Z,17.95
2024-04-25T06:14:52.871Z,17.94
2024-04-25T06:24:54.258Z,17.97
2024-04-25T06:34:55.627Z,17.96
2024-04-25T06:44:57.067Z,17.94
2024-04-25T06:54:58.480Z,17.98
2024-04-25T07:05:00.264Z,17.97
2024-04-25T07:15:01.957Z,18.00
2024-04-25T07:25:03.385Z,18.00
2024-04-25T07:35:04.816Z,17.97
2024-04-25T07:45:06.198Z,18.00
2024-04-25T07:55:07.579Z,18.05
2024-04-25T08:05:10.364Z,18.01
2024-04-25T08:15:11.841Z,18.03
2024-04-25T08:25:20.435Z,18.04
2024-04-25T08:45:50.476Z,18.13
2024-04-25T08:55:51.988Z,18.15
2024-04-25T09:06:01.934Z,18.19
2024-04-25T09:16:06.461Z,18.18
2024-04-25T09:26:12.702Z,18.18
2024-04-25T09:36:23.410Z,18.22
2024-04-25T09:46:32.392Z,18.17
2024-04-25T09:56:40.511Z,18.26
2024-04-25T10:06:48.398Z,18.26
2024-04-25T10:16:57.647Z,18.23
2024-04-25T10:27:04.493Z,18.20
2024-04-25T10:37:12.455Z,18.23
2024-04-25T10:47:21.511Z,18.20
2024-04-25T10:57:29.509Z,18.17
2024-04-25T11:07:37.451Z,18.15
2024-04-25T11:17:56.401Z,18.15
2024-04-25T11:28:05.290Z,18.19
2024-04-25T11:38:06.692Z,18.18
2024-04-25T11:48:10.501Z,18.16
2024-04-25T12:08:47.067Z,18.15
2024-04-25T12:18:56.912Z,18.16
2024-04-25T12:28:58.374Z,18.17
2024-04-25T12:38:59.744Z,18.19
2024-04-25T12:49:01.344Z,18.20
2024-04-25T12:59:14.420Z,18.24
2024-04-25T13:09:16.688Z,18.28
2024-04-25T13:19:25.638Z,18.28
2024-04-25T13:29:33.497Z,18.32
2024-04-25T13:39:41.467Z,18.30
2024-04-25T13:49:49.434Z,18.28
2024-04-25T14:00:00.501Z,18.28
2024-04-25T14:10:06.666Z,18.31
2024-04-25T14:30:38.570Z,18.25
2024-04-25T14:51:08.967Z,18.21
2024-04-25T15:01:10.534Z,18.18
2024-04-25T15:11:12.235Z,18.18
2024-04-25T15:31:42.812Z,18.14
2024-04-25T15:41:44.388Z,18.10
2024-04-25T15:51:45.877Z,18.11
2024-04-25T16:01:50.862Z,18.12
2024-04-25T16:11:52.416Z,18.11
2024-04-25T16:21:53.890Z,18.13
2024-04-25T16:32:00.827Z,18.13
2024-04-25T16:42:10.525Z,18.02
2024-04-25T16:52:18.516Z,18.10
2024-04-25T17:02:27.566Z,18.05
2024-04-25T17:12:35.784Z,18.04
2024-04-25T17:22:41.802Z,17.98
2024-04-25T17:32:43.454Z,17.98
2024-04-25T17:53:16.411Z,17.95
2024-04-25T18:03:17.888Z,17.94
2024-04-25T18:13:25.530Z,17.96
2024-04-25T18:23:32.512Z,17.98
2024-04-25T18:33:34.121Z,17.95
2024-04-25T18:43:35.670Z,17.89
2024-04-25T18:53:37.084Z,17.94
2024-04-25T19:03:38.583Z,17.94
2024-04-25T19:13:39.999Z,17.90
2024-04-25T19:23:41.434Z,17.90
2024-04-25T19:33:43.156Z,17.89
2024-04-25T19:43:44.677Z,17.90
2024-04-25T19:53:46.152Z,17.94
2024-04-25T20:03:48.942Z,17.89
2024-04-25T20:13:54.474Z,17.93
2024-04-25T20:23:56.083Z,17.90
2024-04-25T20:33:57.749Z,17.88
2024-04-25T20:43:59.171Z,17.88
2024-04-25T20:54:00.682Z,17.87
2024-04-25T21:04:02.172Z,17.87
2024-04-25T21:14:03.658Z,17.86
2024-04-25T21:24:05.026Z,17.85
2024-04-25T21:34:06.583Z,17.86
2024-04-25T21:44:08.112Z,17.87
2024-04-25T21:54:09.523Z,17.84
2024-04-25T22:04:10.914Z,17.85
2024-04-25T22:14:12.415Z,17.84
2024-04-25T22:24:13.910Z,17.85
2024-04-25T22:34:17.980Z,17.83
2024-04-25T22:44:19.764Z,17.87
2024-04-25T22:54:21.271Z,17.82
2024-04-25T23:04:22.784Z,17.81
2024-04-25T23:14:30.088Z,17.82
2024-04-25T23:24:33.580Z,17.79
2024-04-25T23:34:39.692Z,17.79
2024-04-25T23:44:41.330Z,17.80
2024-04-25T23:54:42.826Z,17.79
